Time;durP1;ratioP1;P1;durP2;ratioP2;P2;SDS_P1;SDS_P2;PMS_P1;PMS_P2;Temp;Humidity;BMP_temperature;BMP_pressure;BME280_temperature;BME280_humidity;BME280_pressure;Samples;Min_cycle;Max_cycle;Signal;HPM_P1;HPM_P2
2021/09/27 00:02:13;;;;;;;14.77;12.23;;;14.90;99.90;;;;;;6287935;28;20028;-85
2021/09/27 00:05:15;;;;;;;17.35;12.85;;;14.60;99.90;;;;;;6287571;28;20035;-85
2021/09/27 00:08:16;;;;;;;13.80;12.30;;;14.70;99.90;;;;;;6287754;28;20024;-85
2021/09/27 00:11:22;;;;;;;13.68;12.13;;;14.60;99.90;;;;;;6269939;28;20485;-86
2021/09/27 00:14:22;;;;;;;14.18;12.55;;;14.80;99.90;;;;;;6270705;28;20487;-85
2021/09/27 00:17:23;;;;;;;16.08;11.55;;;;;;;;;;6270311;28;20024;-85
2021/09/27 00:20:24;;;;;;;15.18;12.32;;;14.60;99.90;;;;;;6303067;28;20028;-85
2021/09/27 00:23:25;;;;;;;15.57;12.80;;;14.60;99.90;;;;;;6270446;28;20055;-85
2021/09/27 00:26:26;;;;;;;15.05;12.45;;;14.50;99.90;;;;;;6286506;28;20415;-85
2021/09/27 00:29:27;;;;;;;17.95;12.88;;;14.50;99.90;;;;;;6286896;28;20021;-86
2021/09/27 00:32:27;;;;;;;17.98;12.63;;;14.40;99.90;;;;;;6269756;28;20040;-85
2021/09/27 00:35:30;;;;;;;13.98;12.32;;;14.10;99.90;;;;;;6286784;28;20024;-85
2021/09/27 00:38:30;;;;;;;;;;;14.40;99.90;;;;;;6287263;28;20024;-84
2021/09/27 00:41:31;;;;;;;15.63;12.57;;;;;;;;;;6286312;28;20505;-85
2021/09/27 00:44:32;;;;;;;13.77;12.10;;;14.20;99.90;;;;;;6286470;28;20024;-86
2021/09/27 00:47:33;;;;;;;18.30;12.48;;;;;;;;;;6269478;28;20028;-85
2021/09/27 00:50:36;;;;;;;14.30;12.55;;;14.20;99.90;;;;;;6302746;28;20016;-86
2021/09/27 00:53:48;;;;;;;12.82;11.05;;;14.30;99.90;;;;;;6269747;28;20504;-86
2021/09/27 00:57:12;;;;;;;14.40;11.82;;;14.20;99.90;;;;;;6303072;28;20454;-85
2021/09/27 01:00:16;;;;;;;15.27;11.88;;;14.30;99.90;;;;;;6271616;28;20055;-86
2021/09/27 01:03:17;;;;;;;12.80;11.02;;;14.00;99.90;;;;;;6268751;28;20063;-86
2021/09/27 01:06:34;;;;;;;14.00;11.35;;;13.90;99.90;;;;;;6285844;28;20028;-86
2021/09/27 01:10:19;;;;;;;13.82;11.77;;;14.00;99.90;;;;;;6304125;28;20032;-86
2021/09/27 01:13:32;;;;;;;14.55;11.50;;;14.00;99.90;;;;;;6202715;28;20082;-85
2021/09/27 01:17:12;;;;;;;16.15;12.10;;;14.20;99.90;;;;;;6303944;28;20050;-86
2021/09/27 01:20:22;;;;;;;13.20;11.52;;;14.10;99.90;;;;;;6266926;28;20036;-86
2021/09/27 01:24:16;;;;;;;15.02;12.55;;;14.20;99.90;;;;;;6302470;28;20028;-86
2021/09/27 01:27:50;;;;;;;12.40;10.25;;;14.20;99.90;;;;;;6179795;28;20054;-86
2021/09/27 01:30:57;;;;;;;13.68;10.75;;;13.70;99.90;;;;;;6284979;28;20025;-85
2021/09/27 01:34:20;;;;;;;13.38;11.18;;;13.80;99.90;;;;;;6302125;28;20020;-85
2021/09/27 01:37:51;;;;;;;18.27;11.88;;;13.70;99.90;;;;;;6301978;28;20032;-85
2021/09/27 01:41:10;;;;;;;14.40;11.93;;;13.90;99.90;;;;;;6301639;28;20056;-84
2021/09/27 01:44:33;;;;;;;14.80;12.63;;;14.10;99.90;;;;;;6301967;28;20020;-85
2021/09/27 01:47:41;;;;;;;13.75;11.70;;;13.70;99.90;;;;;;6301749;28;20024;-85
2021/09/27 01:50:53;;;;;;;13.43;11.02;;;13.80;99.90;;;;;;6284462;28;20044;-85
2021/09/27 01:53:54;;;;;;;12.82;10.85;;;;;;;;;;6286222;28;20032;-85
2021/09/27 01:57:26;;;;;;;13.85;10.23;;;14.00;99.90;;;;;;6319488;28;20031;-86
2021/09/27 02:01:07;;;;;;;12.40;10.70;;;13.80;99.90;;;;;;6301393;28;20529;-83
2021/09/27 02:04:39;;;;;;;12.48;10.23;;;13.70;99.90;;;;;;6300321;28;20020;-83
2021/09/27 02:07:50;;;;;;;10.65;9.40;;;13.70;99.90;;;;;;6286876;28;20039;-83
2021/09/27 02:11:07;;;;;;;13.55;9.68;;;13.70;99.90;;;;;;6284044;28;20056;-83
2021/09/27 02:14:25;;;;;;;13.77;10.30;;;13.60;99.90;;;;;;6283983;28;20036;-83
2021/09/27 02:17:37;;;;;;;13.55;9.80;;;13.70;99.90;;;;;;6284341;28;20025;-83
2021/09/27 02:20:44;;;;;;;13.07;9.85;;;13.50;99.90;;;;;;6300660;28;20028;-83
2021/09/27 02:23:49;;;;;;;11.90;10.02;;;13.80;99.90;;;;;;6301560;28;20687;-82
2021/09/27 02:26:50;;;;;;;12.38;9.25;;;;;;;;;;6284689;28;20020;-82
2021/09/27 02:29:50;;;;;;;13.20;9.98;;;13.30;99.90;;;;;;6318628;28;20457;-82
2021/09/27 02:33:10;;;;;;;15.80;10.07;;;13.30;99.90;;;;;;6283824;28;20024;-82
2021/09/27 02:36:17;;;;;;;11.68;10.10;;;13.10;99.90;;;;;;6268288;28;20127;-82
2021/09/27 02:39:41;;;;;;;12.85;9.77;;;13.30;99.90;;;;;;6300181;28;20039;-82
2021/09/27 02:42:50;;;;;;;13.63;10.02;;;13.10;99.90;;;;;;6283806;28;20165;-83
2021/09/27 02:45:51;;;;;;;12.40;10.20;;;13.30;99.90;;;;;;6267244;28;20097;-84
2021/09/27 02:48:58;;;;;;;14.20;9.85;;;;;;;;;;6267043;28;20032;-83
2021/09/27 02:52:01;;;;;;;14.52;10.40;;;13.40;99.90;;;;;;6284191;28;20474;-83
2021/09/27 02:55:05;;;;;;;12.50;9.50;;;13.20;99.90;;;;;;6283893;28;20031;-83
2021/09/27 02:58:26;;;;;;;12.30;10.23;;;13.20;99.90;;;;;;6300250;28;20056;-83
2021/09/27 03:01:33;;;;;;;14.30;10.02;;;13.30;99.90;;;;;;6268366;28;20067;-83
2021/09/27 03:05:11;;;;;;;11.52;9.63;;;13.20;99.90;;;;;;6299704;28;20030;-85
2021/09/27 03:08:18;;;;;;;27.13;19.20;;;13.10;99.90;;;;;;6318191;28;20060;-85
2021/09/27 03:11:37;;;;;;;12.88;10.93;;;13.10;99.90;;;;;;6264078;28;20056;-85
2021/09/27 03:15:16;;;;;;;13.63;9.63;;;13.00;99.90;;;;;;6266551;28;20025;-86
2021/09/27 03:18:56;;;;;;;12.13;9.02;;;13.00;99.90;;;;;;6268449;28;20021;-85
2021/09/27 03:22:07;;;;;;;11.68;9.90;;;12.90;99.90;;;;;;6236423;28;20466;-85
2021/09/27 03:25:20;;;;;;;13.30;8.82;;;12.80;99.90;;;;;;6250996;28;20098;-85
2021/09/27 03:28:30;;;;;;;17.58;12.75;;;13.10;99.90;;;;;;6270490;28;20475;-86
2021/09/27 03:31:43;;;;;;;11.32;9.40;;;12.80;99.90;;;;;;6271448;28;20045;-85
2021/09/27 03:35:02;;;;;;;12.95;10.40;;;13.00;99.90;;;;;;6255033;28;20071;-85
2021/09/27 03:38:21;;;;;;;8.98;8.07;;;12.80;99.90;;;;;;6256901;28;20110;-85
2021/09/27 03:41:22;;;;;;;8.80;7.78;;;;;;;;;;6239010;28;20049;-85
2021/09/27 03:44:33;;;;;;;12.00;8.30;;;12.90;99.90;;;;;;6273002;28;20027;-85
2021/09/27 03:47:56;;;;;;;11.02;7.90;;;12.60;99.90;;;;;;6271282;28;20033;-85
2021/09/27 03:51:01;;;;;;;10.18;8.00;;;12.80;99.90;;;;;;6271221;28;20124;-84
2021/09/27 03:54:07;;;;;;;10.52;8.60;;;12.70;99.90;;;;;;6222119;28;20087;-85
2021/09/27 03:57:21;;;;;;;14.88;9.57;;;12.50;99.90;;;;;;6238522;28;20029;-85
2021/09/27 04:00:43;;;;;;;9.13;7.93;;;13.00;99.90;;;;;;6239457;28;20363;-85
2021/09/27 04:04:13;;;;;;;10.83;8.60;;;12.50;99.90;;;;;;6256562;28;20103;-85
2021/09/27 04:07:42;;;;;;;11.02;8.45;;;12.70;99.90;;;;;;6254070;28;20107;-84
2021/09/27 04:10:52;;;;;;;10.68;7.85;;;12.50;99.90;;;;;;6282110;28;20450;-85
2021/09/27 04:14:23;;;;;;;12.70;7.63;;;12.40;99.90;;;;;;6304100;28;20047;-85
2021/09/27 04:17:32;;;;;;;10.15;7.00;;;12.40;99.90;;;;;;6287141;28;20031;-85
2021/09/27 04:20:54;;;;;;;11.57;7.65;;;12.60;99.90;;;;;;6286105;28;20076;-85
2021/09/27 04:24:15;;;;;;;8.98;7.28;;;12.70;99.90;;;;;;6303376;28;20390;-84
2021/09/27 04:27:43;;;;;;;11.27;8.40;;;12.50;99.90;;;;;;6289533;28;20032;-85
2021/09/27 04:31:07;;;;;;;17.02;9.82;;;12.20;99.90;;;;;;6303537;28;20039;-85
2021/09/27 04:34:49;;;;;;;10.40;9.25;;;12.40;99.90;;;;;;6301887;28;20036;-85
2021/09/27 04:37:50;;;;;;;11.33;9.37;;;12.30;99.90;;;;;;6229567;28;21445;-85
2021/09/27 04:41:27;;;;;;;10.50;8.77;;;12.30;99.90;;;;;;6268365;28;20036;-85
2021/09/27 04:44:57;;;;;;;11.05;9.32;;;12.30;99.90;;;;;;6321157;28;20355;-84
2021/09/27 04:48:10;;;;;;;12.35;9.27;;;12.30;99.90;;;;;;6302709;28;20020;-85
2021/09/27 04:51:15;;;;;;;10.10;8.93;;;12.10;99.90;;;;;;6321058;28;20488;-84
2021/09/27 04:54:38;;;;;;;10.63;8.48;;;12.40;99.90;;;;;;6286064;28;20034;-84
2021/09/27 04:57:41;;;;;;;12.10;8.32;;;12.10;99.90;;;;;;6294561;28;20165;-84
2021/09/27 05:01:05;;;;;;;11.65;8.05;;;12.30;99.90;;;;;;6302253;28;20130;-84
2021/09/27 05:04:18;;;;;;;12.10;8.05;;;12.40;99.90;;;;;;6259717;28;20024;-88
2021/09/27 05:07:37;;;;;;;10.63;8.55;;;12.30;99.90;;;;;;6285391;28;20061;-85
2021/09/27 05:11:11;;;;;;;9.45;8.40;;;12.40;99.90;;;;;;6302387;28;20464;-85
2021/09/27 05:14:16;;;;;;;10.73;8.50;;;12.30;99.90;;;;;;6285354;28;20066;-86
2021/09/27 05:17:41;;;;;;;9.75;8.30;;;12.10;99.90;;;;;;6285902;28;20024;-80
2021/09/27 05:21:09;;;;;;;9.15;8.07;;;11.70;99.90;;;;;;6301694;28;20028;-80
2021/09/27 05:24:25;;;;;;;9.77;7.88;;;12.10;99.90;;;;;;6304418;28;20366;-82
2021/09/27 05:27:57;;;;;;;10.93;7.93;;;12.10;99.90;;;;;;6320251;28;20115;-81
2021/09/27 05:31:22;;;;;;;9.50;7.97;;;11.90;99.90;;;;;;6274178;28;20032;-81
2021/09/27 05:34:29;;;;;;;12.40;7.68;;;12.40;99.90;;;;;;6301614;28;20719;-82
2021/09/27 05:37:35;;;;;;;7.97;7.10;;;12.20;99.90;;;;;;6320047;28;20059;-83
2021/09/27 05:40:45;;;;;;;8.95;7.00;;;12.30;99.90;;;;;;6318271;28;20032;-81
2021/09/27 05:43:50;;;;;;;9.60;7.53;;;12.40;99.90;;;;;;6284396;28;20142;-83
2021/09/27 05:47:19;;;;;;;9.60;6.47;;;12.50;99.90;;;;;;6301678;28;20024;-83
2021/09/27 05:50:29;;;;;;;7.63;6.80;;;12.40;99.90;;;;;;6318293;28;20024;-83
2021/09/27 05:53:45;;;;;;;9.55;7.25;;;12.40;99.90;;;;;;6301399;28;20176;-83
2021/09/27 05:56:56;;;;;;;9.13;7.15;;;12.50;99.90;;;;;;6296930;28;20016;-81
2021/09/27 06:00:02;;;;;;;9.35;7.50;;;12.50;99.90;;;;;;6301073;28;20016;-83
2021/09/27 06:03:21;;;;;;;11.13;6.35;;;12.50;99.90;;;;;;6299329;28;20016;-82
2021/09/27 06:06:32;;;;;;;7.68;6.25;;;13.60;99.90;;;;;;6319123;28;20513;-82
2021/09/27 06:09:53;;;;;;;7.35;5.47;;;14.50;99.90;;;;;;6301226;28;20024;-83
2021/09/27 06:13:02;;;;;;;6.53;5.82;;;15.10;99.90;;;;;;6283065;28;20416;-87
2021/09/27 06:16:26;;;;;;;6.60;5.35;;;15.70;99.90;;;;;;6284502;28;20111;-82
2021/09/27 06:19:46;;;;;;;10.45;6.95;;;15.90;99.90;;;;;;6300394;28;20044;-82
2021/09/27 06:23:04;;;;;;;10.00;6.82;;;16.10;99.90;;;;;;6301224;28;20035;-82
2021/09/27 06:26:10;;;;;;;9.35;6.00;;;16.90;99.90;;;;;;6300917;28;20039;-82
2021/09/27 06:29:22;;;;;;;6.35;5.20;;;16.50;99.90;;;;;;6300451;28;20115;-82
2021/09/27 06:32:41;;;;;;;7.45;6.38;;;16.70;99.90;;;;;;6283401;28;20044;-82
2021/09/27 06:35:42;;;;;;;6.95;5.47;;;17.60;99.90;;;;;;6318867;28;20027;-83
2021/09/27 06:38:42;;;;;;;6.13;5.50;;;17.60;99.90;;;;;;6300122;28;20089;-83
2021/09/27 06:41:44;;;;;;;6.10;5.50;;;18.00;99.90;;;;;;6299935;28;20020;-80
2021/09/27 06:44:46;;;;;;;7.68;5.57;;;19.30;99.90;;;;;;6300153;28;20059;-80
2021/09/27 06:47:46;;;;;;;5.85;5.25;;;18.40;99.90;;;;;;6300377;28;20111;-80
2021/09/27 06:50:47;;;;;;;6.60;5.18;;;19.30;99.90;;;;;;6317966;28;20081;-80
2021/09/27 06:53:48;;;;;;;6.82;5.03;;;19.30;99.90;;;;;;6299933;28;20044;-80
2021/09/27 06:56:49;;;;;;;6.28;4.90;;;19.40;99.90;;;;;;6283316;28;20032;-80
2021/09/27 06:59:49;;;;;;;7.03;5.47;;;19.50;99.90;;;;;;6299789;28;20024;-80
2021/09/27 07:02:50;;;;;;;6.20;5.22;;;19.60;99.90;;;;;;6299250;28;20423;-80
2021/09/27 07:05:51;;;;;;;7.57;5.38;;;;;;;;;;6299582;28;20017;-80
2021/09/27 07:08:52;;;;;;;7.03;5.18;;;19.80;99.90;;;;;;6283162;28;20532;-80
2021/09/27 07:11:52;;;;;;;5.82;5.07;;;19.80;99.90;;;;;;6282175;28;20062;-80
2021/09/27 07:14:54;;;;;;;6.05;4.78;;;20.20;99.90;;;;;;6299898;28;20486;-81
2021/09/27 07:17:55;;;;;;;4.65;4.13;;;20.50;99.90;;;;;;6282655;28;20043;-81
2021/09/27 07:20:58;;;;;;;5.28;4.47;;;20.90;99.90;;;;;;6299246;28;20363;-81
2021/09/27 07:23:59;;;;;;;6.63;4.45;;;21.20;99.90;;;;;;6299530;28;20020;-81
2021/09/27 07:26:59;;;;;;;15.05;5.18;;;21.90;99.90;;;;;;6299809;28;20039;-81
2021/09/27 07:30:00;;;;;;;6.78;4.75;;;22.00;99.90;;;;;;6282950;28;20101;-81
2021/09/27 07:33:01;;;;;;;6.13;4.53;;;22.50;99.90;;;;;;6299009;28;20456;-81
2021/09/27 07:36:03;;;;;;;6.25;4.82;;;23.00;99.90;;;;;;6299539;28;20031;-81
2021/09/27 07:39:04;;;;;;;;;;;23.10;99.90;;;;;;6282950;28;20064;-82
2021/09/27 07:42:05;;;;;;;5.22;4.72;;;23.90;99.90;;;;;;6299282;28;19908;-81
2021/09/27 07:45:06;;;;;;;4.32;3.92;;;24.20;99.90;;;;;;6282377;28;20035;-81
2021/09/27 07:48:10;;;;;;;4.05;3.65;;;24.40;99.90;;;;;;6317136;28;20112;-81
2021/09/27 07:51:11;;;;;;;5.30;3.88;;;;;;;;;;6299585;28;20411;-82
2021/09/27 07:54:13;;;;;;;5.30;4.30;;;;;;;;;;6299052;28;20027;-82
2021/09/27 07:57:15;;;;;;;;;;;24.90;98.50;;;;;;6299952;28;20012;-81
2021/09/27 08:00:16;;;;;;;5.38;4.13;;;25.10;99.90;;;;;;6299360;28;19954;-81
2021/09/27 08:03:17;;;;;;;4.70;4.00;;;;;;;;;;6299744;28;20042;-82
2021/09/27 08:06:18;;;;;;;6.77;5.20;;;25.70;95.40;;;;;;6298952;28;20025;-82
2021/09/27 08:09:18;;;;;;;4.53;4.13;;;25.60;92.50;;;;;;6299108;28;20027;-82
2021/09/27 08:12:19;;;;;;;3.97;3.50;;;25.40;92.80;;;;;;6298703;28;20059;-82
2021/09/27 08:15:22;;;;;;;5.47;3.87;;;25.60;92.30;;;;;;6301271;28;20031;-82
2021/09/27 08:18:29;;;;;;;4.18;3.78;;;26.00;91.90;;;;;;6304493;28;20016;-90
2021/09/27 08:22:06;;;;;;;4.88;4.22;;;26.30;91.70;;;;;;6271482;28;20031;-90
2021/09/27 08:25:20;;;;;;;4.47;4.07;;;27.20;99.90;;;;;;6288651;28;20024;-89
2021/09/27 08:28:46;;;;;;;5.20;3.75;;;27.40;91.40;;;;;;6289042;28;20036;-89
2021/09/27 08:32:14;;;;;;;4.00;3.58;;;28.70;88.80;;;;;;6290041;28;20105;-88
2021/09/27 08:35:21;;;;;;;3.58;3.28;;;27.80;85.30;;;;;;6303297;28;20028;-89
2021/09/27 08:38:40;;;;;;;3.95;3.55;;;29.50;77.20;;;;;;6284676;28;20036;-88
2021/09/27 08:46:30;;;;;;;;;;;;;;;;;;;;;
2021/09/27 08:54:20;;;;;;;3.50;3.20;;;29.30;72.80;;;;;;6219469;28;20042;-90
2021/09/27 08:58:26;;;;;;;;;;;;;;;;;;;;;
2021/09/27 09:10:05;;;;;;;4.85;3.70;;;29.90;71.80;;;;;;6078674;29;20092;-80
2021/09/27 09:13:06;;;;;;;4.00;3.47;;;29.80;72.10;;;;;;6065821;29;20056;-81
2021/09/27 09:16:08;;;;;;;4.60;3.50;;;29.80;72.10;;;;;;6088843;29;20466;-81
2021/09/27 09:19:11;;;;;;;3.63;3.30;;;30.10;71.40;;;;;;6113464;29;20114;-82
2021/09/27 09:22:24;;;;;;;5.28;3.10;;;30.20;70.60;;;;;;6112928;29;20050;-81
2021/09/27 09:25:27;;;;;;;3.42;3.13;;;30.30;69.70;;;;;;6099694;29;20700;-81
2021/09/27 09:28:28;;;;;;;3.83;3.53;;;30.20;67.90;;;;;;6075236;29;20039;-80
2021/09/27 09:31:34;;;;;;;3.73;3.20;;;30.60;76.40;;;;;;6105701;29;20173;-80
2021/09/27 09:34:35;;;;;;;3.60;3.30;;;30.10;76.90;;;;;;6128183;29;20486;-81
2021/09/27 09:37:37;;;;;;;3.67;3.30;;;30.10;69.10;;;;;;6112763;29;20126;-81
2021/09/27 09:40:41;;;;;;;4.18;3.30;;;30.10;70.10;;;;;;6096103;29;20031;-81
2021/09/27 09:43:45;;;;;;;5.57;3.90;;;30.20;71.70;;;;;;6210984;28;20047;-81
2021/09/27 09:46:45;;;;;;;4.43;3.50;;;30.30;70.60;;;;;;6283679;28;20138;-80
2021/09/27 09:50:10;;;;;;;4.17;3.60;;;30.00;71.40;;;;;;6299746;28;20541;-81
2021/09/27 09:53:25;;;;;;;4.68;3.70;;;29.90;71.40;;;;;;6300718;28;20484;-80
2021/09/27 09:56:31;;;;;;;4.30;3.55;;;29.50;71.30;;;;;;6300229;28;20198;-81
2021/09/27 09:59:37;;;;;;;3.63;3.28;;;29.50;71.70;;;;;;6300657;28;20016;-81
2021/09/27 10:02:38;;;;;;;6.60;3.78;;;29.90;70.90;;;;;;6299988;28;20712;-81
2021/09/27 10:05:40;;;;;;;4.72;3.78;;;30.00;71.50;;;;;;6299471;28;20027;-80
2021/09/27 10:08:51;;;;;;;4.70;4.10;;;29.90;71.70;;;;;;6300409;28;20093;-82
2021/09/27 10:11:54;;;;;;;4.32;3.60;;;29.90;71.20;;;;;;6300137;28;20069;-81
2021/09/27 10:14:54;;;;;;;4.40;4.00;;;30.10;71.90;;;;;;6300248;28;20110;-82
2021/09/27 10:18:13;;;;;;;5.47;4.13;;;30.20;71.20;;;;;;6300737;28;20101;-81
2021/09/27 10:21:24;;;;;;;4.28;3.83;;;30.10;70.80;;;;;;6300943;28;20061;-81
2021/09/27 10:24:36;;;;;;;5.88;4.90;;;29.40;71.40;;;;;;6300281;28;20107;-84
2021/09/27 10:27:40;;;;;;;;;;;28.30;73.60;;;;;;6284617;28;20077;-84
2021/09/27 10:30:43;;;;;;;4.60;4.20;;;27.90;83.60;;;;;;6300483;28;19908;-85
2021/09/27 10:33:49;;;;;;;4.53;3.70;;;27.70;83.90;;;;;;6283259;28;20119;-82
2021/09/27 10:36:56;;;;;;;4.35;3.95;;;27.90;84.70;;;;;;6283531;28;20024;-88
2021/09/27 10:39:57;;;;;;;5.18;4.38;;;;;;;;;;6300731;28;20043;-88
2021/09/27 10:42:58;;;;;;;5.93;4.30;;;28.30;78.50;;;;;;6284065;28;20043;-89
2021/09/27 10:46:00;;;;;;;4.87;4.17;;;28.60;79.40;;;;;;6283724;28;20034;-86
2021/09/27 10:49:00;;;;;;;4.95;4.00;;;28.60;75.90;;;;;;6283229;28;20040;-85
2021/09/27 10:52:12;;;;;;;5.50;3.80;;;28.60;78.40;;;;;;6283106;28;20544;-84
2021/09/27 10:55:37;;;;;;;4.07;3.70;;;28.60;76.80;;;;;;6283557;28;20020;-84
2021/09/27 10:59:13;;;;;;;4.30;3.90;;;28.40;76.40;;;;;;6318249;28;20020;-85
2021/09/27 11:02:28;;;;;;;7.63;4.43;;;28.20;76.10;;;;;;6300395;28;20023;-85
2021/09/27 11:09:26;;;;;;;4.30;3.40;;;27.40;90.50;;;;;;6228421;28;20072;-92
2021/09/27 11:12:54;;;;;;;5.05;3.50;;;26.70;90.80;;;;;;6231575;28;20065;-85
2021/09/27 11:15:58;;;;;;;3.90;3.30;;;;;;;;;;6211264;28;20107;-88
2021/09/27 11:19:30;;;;;;;4.78;3.50;;;25.50;91.50;;;;;;6240876;28;20030;-91
2021/09/27 11:22:56;;;;;;;3.72;3.33;;;25.60;97.70;;;;;;6214886;28;20025;-85
2021/09/27 11:26:14;;;;;;;4.18;3.20;;;25.50;95.30;;;;;;6194614;28;20065;-88
2021/09/27 11:29:41;;;;;;;3.40;2.80;;;25.10;96.60;;;;;;6223158;28;20472;-87
2021/09/27 11:32:46;;;;;;;3.15;2.85;;;25.20;78.20;;;;;;6205280;28;20092;-84
2021/09/27 11:35:47;;;;;;;3.33;2.90;;;25.80;94.60;;;;;;6183798;28;20456;-83
2021/09/27 11:39:10;;;;;;;4.30;2.67;;;25.80;75.80;;;;;;6193812;28;20073;-86
2021/09/27 11:42:20;;;;;;;3.80;3.00;;;26.70;93.80;;;;;;6195704;28;20038;-87
2021/09/27 11:45:24;;;;;;;2.63;2.42;;;27.10;93.20;;;;;;6235312;28;20581;-87
2021/09/27 11:48:43;;;;;;;3.33;2.97;;;27.10;72.60;;;;;;6291464;28;20028;-86
2021/09/27 11:51:44;;;;;;;3.97;2.53;;;27.10;73.00;;;;;;6278825;28;20074;-85
2021/09/27 11:55:08;;;;;;;3.78;2.60;;;26.80;72.00;;;;;;6295146;28;20064;-85
2021/09/27 11:58:25;;;;;;;2.58;2.38;;;26.40;72.20;;;;;;6274602;28;20037;-85
2021/09/27 12:01:57;;;;;;;6.25;2.50;;;25.90;73.10;;;;;;6295552;28;20071;-85
2021/09/27 12:05:07;;;;;;;3.40;2.67;;;24.80;74.60;;;;;;6295003;28;20028;-86
2021/09/27 12:08:16;;;;;;;4.03;2.58;;;25.30;75.50;;;;;;6295510;28;20028;-85
2021/09/27 12:11:17;;;;;;;3.30;3.00;;;25.10;77.20;;;;;;6284847;28;20072;-84
2021/09/27 12:14:20;;;;;;;2.53;2.33;;;24.90;77.90;;;;;;6237540;28;20044;-85
2021/09/27 12:17:23;;;;;;;4.28;2.88;;;24.90;76.20;;;;;;6254371;28;20036;-84
2021/09/27 12:20:26;;;;;;;4.10;2.58;;;24.90;76.10;;;;;;6253629;28;20032;-85
2021/09/27 12:23:26;;;;;;;2.92;2.60;;;25.00;75.50;;;;;;6237642;28;20021;-85
2021/09/27 12:26:29;;;;;;;6.03;2.60;;;25.20;77.80;;;;;;6236010;28;20032;-85
2021/09/27 12:29:30;;;;;;;3.03;2.63;;;;;;;;;;6270257;28;20033;-85
2021/09/27 12:32:36;;;;;;;3.53;2.67;;;25.20;77.00;;;;;;6253501;28;20082;-85
2021/09/27 12:35:44;;;;;;;2.70;2.40;;;25.10;77.50;;;;;;6253758;28;20032;-85
2021/09/27 12:38:53;;;;;;;3.80;2.60;;;25.30;75.20;;;;;;6235892;28;20025;-85
2021/09/27 12:41:55;;;;;;;2.40;2.20;;;25.10;74.20;;;;;;6252677;28;20459;-85
2021/09/27 12:45:24;;;;;;;2.83;2.33;;;24.70;74.70;;;;;;6252809;28;20533;-84
2021/09/27 12:48:31;;;;;;;3.22;2.53;;;24.70;75.80;;;;;;6252782;28;20065;-85
2021/09/27 12:51:33;;;;;;;2.55;2.33;;;24.50;76.10;;;;;;6236203;28;20364;-85
2021/09/27 12:54:39;;;;;;;2.53;2.33;;;24.40;77.50;;;;;;6269796;28;20033;-85
2021/09/27 12:57:47;;;;;;;2.88;2.55;;;24.50;75.40;;;;;;6236968;28;20036;-85
2021/09/27 13:00:48;;;;;;;2.70;2.25;;;24.20;74.40;;;;;;6269503;28;20036;-85
2021/09/27 13:03:58;;;;;;;5.23;2.57;;;24.20;77.20;;;;;;6236167;28;20048;-85
2021/09/27 13:07:00;;;;;;;2.95;2.70;;;24.30;77.60;;;;;;6269287;28;20033;-84
2021/09/27 13:10:16;;;;;;;4.43;2.90;;;24.30;81.20;;;;;;6252407;28;20148;-86
2021/09/27 13:13:30;;;;;;;3.20;2.60;;;24.30;78.30;;;;;;6252412;28;20053;-86
2021/09/27 13:16:33;;;;;;;4.10;2.67;;;24.30;79.20;;;;;;6235927;28;20040;-84
2021/09/27 13:19:45;;;;;;;2.70;2.50;;;24.20;78.40;;;;;;6252929;28;20082;-84
2021/09/27 13:22:46;;;;;;;3.22;2.80;;;24.20;79.50;;;;;;6253334;28;20025;-86
2021/09/27 13:25:51;;;;;;;2.40;2.20;;;24.20;83.10;;;;;;6236203;28;20044;-83
2021/09/27 13:28:56;;;;;;;3.40;2.70;;;24.20;79.40;;;;;;6235659;28;20458;-83
2021/09/27 13:32:00;;;;;;;5.88;3.05;;;24.20;98.80;;;;;;6253070;28;20064;-84
2021/09/27 13:35:09;;;;;;;3.42;2.78;;;23.90;98.20;;;;;;6235559;28;20037;-83
2021/09/27 13:38:14;;;;;;;3.85;2.40;;;23.90;98.10;;;;;;6268936;28;20111;-83
2021/09/27 13:41:20;;;;;;;3.15;2.72;;;24.00;88.80;;;;;;6252198;28;20025;-83
2021/09/27 13:44:30;;;;;;;3.40;3.08;;;24.00;82.90;;;;;;6235404;28;20029;-83
2021/09/27 13:47:31;;;;;;;3.65;3.00;;;23.80;84.40;;;;;;6267721;28;20111;-83
2021/09/27 13:50:31;;;;;;;3.60;2.77;;;23.60;88.60;;;;;;6251295;28;20066;-84
2021/09/27 13:53:46;;;;;;;4.27;2.97;;;23.60;84.20;;;;;;6251599;28;20486;-84
2021/09/27 13:56:46;;;;;;;3.88;2.97;;;23.60;85.10;;;;;;6252950;28;20025;-84
2021/09/27 13:59:48;;;;;;;3.10;2.60;;;23.50;86.20;;;;;;6251414;28;20035;-83
2021/09/27 14:02:49;;;;;;;3.63;2.90;;;23.40;85.00;;;;;;6234924;28;20347;-82
2021/09/27 14:05:50;;;;;;;3.20;2.90;;;23.30;85.50;;;;;;6234822;28;20082;-83
2021/09/27 14:08:50;;;;;;;4.23;2.70;;;23.10;86.30;;;;;;6234734;28;20523;-83
2021/09/27 14:11:51;;;;;;;2.80;2.60;;;23.00;88.00;;;;;;6249678;28;20144;-86
2021/09/27 14:14:52;;;;;;;2.83;2.63;;;23.00;86.70;;;;;;6234360;28;20068;-83
2021/09/27 14:17:52;;;;;;;3.77;2.70;;;23.10;87.00;;;;;;6267887;28;20029;-84
2021/09/27 14:20:53;;;;;;;8.87;3.40;;;23.00;86.70;;;;;;6267621;28;20029;-83
2021/09/27 14:23:58;;;;;;;4.17;2.90;;;23.00;85.70;;;;;;6234626;28;20363;-83
2021/09/27 14:27:01;;;;;;;5.93;3.92;;;23.00;86.20;;;;;;6250880;28;20768;-83
2021/09/27 14:30:03;;;;;;;197.82;72.55;;;22.90;85.60;;;;;;6234680;28;20021;-82
2021/09/27 14:33:04;;;;;;;55.58;25.10;;;23.00;87.80;;;;;;6250600;28;20032;-84
2021/09/27 14:36:05;;;;;;;68.30;26.50;;;23.00;86.10;;;;;;6250736;28;20578;-82
2021/09/27 14:39:06;;;;;;;4.95;3.78;;;23.00;87.30;;;;;;6233820;28;20021;-81
2021/09/27 14:42:06;;;;;;;3.13;2.83;;;22.90;84.30;;;;;;6232849;28;20036;-81
2021/09/27 14:45:08;;;;;;;4.28;2.92;;;22.80;83.80;;;;;;6266584;28;20356;-82
2021/09/27 14:48:09;;;;;;;;;;;22.80;84.00;;;;;;6250144;28;20473;-82
2021/09/27 14:51:09;;;;;;;3.38;3.08;;;22.80;84.70;;;;;;6249741;28;19913;-81
2021/09/27 14:54:10;;;;;;;3.50;2.40;;;22.80;85.50;;;;;;6250063;28;20387;-82
2021/09/27 14:57:11;;;;;;;2.57;2.37;;;22.80;85.50;;;;;;6250375;28;20524;-82
2021/09/27 15:00:14;;;;;;;2.83;2.30;;;22.80;84.50;;;;;;6249202;28;20118;-80
2021/09/27 15:03:15;;;;;;;3.58;2.58;;;22.80;83.50;;;;;;6249236;28;20549;-81
2021/09/27 15:06:18;;;;;;;3.00;2.70;;;22.70;84.10;;;;;;6233831;28;20032;-80
2021/09/27 15:09:19;;;;;;;2.75;2.47;;;22.80;81.60;;;;;;6266095;28;20083;-82
2021/09/27 15:12:19;;;;;;;3.63;2.57;;;22.90;82.20;;;;;;6248907;28;20483;-82
2021/09/27 15:15:24;;;;;;;2.97;2.17;;;23.00;81.90;;;;;;6249721;28;20124;-81
2021/09/27 15:18:25;;;;;;;2.78;2.47;;;23.00;81.20;;;;;;6267302;28;20068;-82
2021/09/27 15:21:26;;;;;;;2.63;2.42;;;23.20;81.00;;;;;;6249785;28;20033;-83
2021/09/27 15:24:29;;;;;;;3.53;2.20;;;23.20;78.20;;;;;;6249212;28;20486;-83
2021/09/27 15:27:29;;;;;;;2.53;2.33;;;23.20;78.70;;;;;;6233778;28;20049;-82
2021/09/27 15:30:33;;;;;;;2.80;2.17;;;23.30;81.00;;;;;;6265517;28;20047;-82
2021/09/27 15:33:34;;;;;;;2.63;2.42;;;22.60;79.60;;;;;;6266367;28;20080;-83
2021/09/27 15:36:38;;;;;;;2.50;2.30;;;23.30;80.00;;;;;;6266173;28;20025;-82
2021/09/27 15:39:38;;;;;;;3.10;2.20;;;23.20;79.70;;;;;;6245608;28;20032;-82
2021/09/27 15:42:39;;;;;;;2.77;2.57;;;23.20;83.50;;;;;;6232931;28;20028;-82
2021/09/27 15:45:40;;;;;;;2.73;2.40;;;23.20;84.80;;;;;;6253940;28;20103;-81
2021/09/27 15:48:41;;;;;;;2.57;2.37;;;23.10;84.00;;;;;;6249556;28;20041;-82
2021/09/27 15:51:41;;;;;;;4.40;2.83;;;23.00;80.80;;;;;;6249033;28;20151;-82
2021/09/27 15:59:17;;;;;;;2.50;2.30;;;22.50;86.40;;;;;;6271510;28;20124;-82
2021/09/27 16:02:17;;;;;;;3.40;2.33;;;25.50;90.10;;;;;;6265960;28;20036;-83
2021/09/27 16:05:18;;;;;;;4.37;2.47;;;22.50;86.90;;;;;;6233038;28;20013;-83
2021/09/27 16:32:21;;;;;;;3.22;2.80;;;;;;;;;;6116376;29;20386;-80
2021/09/27 16:35:59;;;;;;;3.10;2.33;;;21.50;90.00;;;;;;6131848;28;20568;-86
2021/09/27 16:39:29;;;;;;;3.95;2.83;;;21.40;91.50;;;;;;6114876;29;20042;-83
2021/09/27 16:42:52;;;;;;;5.28;3.38;;;21.30;93.20;;;;;;6085938;29;20040;-83
2021/09/27 16:46:28;;;;;;;5.28;2.90;;;21.10;94.40;;;;;;6074700;29;20071;-84
2021/09/27 16:49:30;;;;;;;3.05;2.75;;;;;;;;;;6092103;29;20040;-82
2021/09/27 16:52:30;;;;;;;3.47;2.80;;;21.00;95.40;;;;;;6104714;29;20043;-82
2021/09/27 16:55:31;;;;;;;4.05;2.78;;;20.80;96.60;;;;;;6090170;29;20040;-82
2021/09/27 16:58:32;;;;;;;4.88;3.33;;;20.70;97.40;;;;;;6089871;29;20457;-84
2021/09/27 17:01:33;;;;;;;3.55;3.03;;;20.60;99.90;;;;;;6090430;29;20083;-83
2021/09/27 17:04:33;;;;;;;5.03;3.00;;;20.30;99.30;;;;;;6106578;29;20059;-84
2021/09/27 17:07:34;;;;;;;4.07;2.80;;;20.30;99.90;;;;;;6106154;29;20043;-85
2021/09/27 17:10:35;;;;;;;5.40;3.60;;;20.20;99.90;;;;;;6090323;29;20418;-85
2021/09/27 17:13:41;;;;;;;7.22;3.75;;;19.80;99.90;;;;;;6105992;29;20702;-85
2021/09/27 17:20:02;;;;;;;9.60;6.60;;;19.20;99.90;;;;;;6126491;29;20031;-84
2021/09/27 17:23:27;;;;;;;4.70;3.83;;;19.00;99.90;;;;;;6115263;29;20058;-81
2021/09/27 17:26:27;;;;;;;4.93;3.40;;;18.80;99.90;;;;;;6115119;29;20126;-83